CheckWX is a tool to help pilots better visualize weather data.  It is not intended as a substitute for an official pre-flight weather briefing.

17:41:58 UTC

CYYW METAR
Armstrong Airport
Armstrong, Canada
Current

42 mins ago

CYYW 241700Z AUTO 30009G17KT 280V350 9SM CLR M09/M23 A3037 RMK SLP316
Observed
Mar-24 @ 17:00 UTC
Wind
  • 300° at 9 KTS
  • Gusting to 17 KTS
Visibility
9 SM
Flight Rules
VFR
Cloud Levels
  • Clear skies
Temperature
-9°C / 16°F
Dewpoint
-23°C / -9°F
Humidity
31%
Altimeter
30.37" Hg
Pressure
1031.6 hPa
Previous

2 hours ago

CYYW 241600Z AUTO 32006KT 290V010 9SM CLR M11/M23 A3038 RMK SLP320
Observed
Mar-24 @ 16:00 UTC
Wind
  • 320° at 6 KTS
Visibility
9 SM
Flight Rules
VFR
Cloud Levels
  • Clear skies
Temperature
-11°C / 12°F
Dewpoint
-23°C / -9°F
Humidity
37%
Altimeter
30.38" Hg
Pressure
1032 hPa
Previous

3 hours ago

CYYW 241500Z AUTO 31009KT 290V010 9SM CLR M13/M25 A3039 RMK SLP322
Observed
Mar-24 @ 15:00 UTC
Wind
  • 310° at 9 KTS
Visibility
9 SM
Flight Rules
VFR
Cloud Levels
  • Clear skies
Temperature
-13°C / 9°F
Dewpoint
-25°C / -13°F
Humidity
36%
Altimeter
30.39" Hg
Pressure
1032.2 hPa